createdAt,value
2019-05-29T08:14:58.741Z,8.73
2019-05-29T08:17:27.437Z,7.85
2019-05-29T08:20:05.877Z,7.42
2019-05-29T08:22:34.196Z,6.67
2019-05-29T08:24:57.471Z,7.85
2019-05-29T08:27:26.805Z,7.35
2019-05-29T08:29:55.679Z,8.28
2019-05-29T08:32:26.321Z,8.70
2019-05-29T08:34:55.124Z,8.23
2019-05-29T08:37:25.156Z,8.93
2019-05-29T08:39:54.209Z,8.70
2019-05-29T08:42:23.907Z,8.28
2019-05-29T08:44:54.491Z,9.03
2019-05-29T08:47:23.235Z,7.53
2019-05-29T08:49:54.480Z,8.18
2019-05-29T08:52:24.365Z,8.68
2019-05-29T08:54:54.103Z,7.30
2019-05-29T08:57:24.210Z,6.85
2019-05-29T08:59:54.493Z,7.95
2019-05-29T09:02:25.245Z,7.55
2019-05-29T09:04:55.086Z,6.78
2019-05-29T09:07:23.927Z,5.87
2019-05-29T09:09:53.859Z,6.10
2019-05-29T09:12:22.677Z,5.78
2019-05-29T09:14:53.333Z,4.58
2019-05-29T09:17:24.385Z,4.70
2019-05-29T09:19:53.787Z,5.03
2019-05-29T09:22:22.924Z,4.37
2019-05-29T09:24:51.772Z,3.65
2019-05-29T09:27:21.224Z,2.40
2019-05-29T09:29:51.735Z,2.35
2019-05-29T09:32:47.564Z,1.90
2019-05-29T09:34:52.370Z,2.00
2019-05-29T09:37:22.383Z,2.95
2019-05-29T09:39:52.833Z,2.17
2019-05-29T09:42:23.715Z,1.85
2019-05-29T09:44:53.028Z,1.67
2019-05-29T09:47:24.279Z,1.75
2019-05-29T09:49:52.624Z,1.82
2019-05-29T09:52:33.324Z,1.40
2019-05-29T09:55:02.619Z,2.52
2019-05-29T09:57:33.355Z,1.85
2019-05-29T10:00:06.604Z,2.00
2019-05-29T10:02:34.536Z,1.75
2019-05-29T10:05:05.071Z,1.70
2019-05-29T10:07:34.140Z,1.70
2019-05-29T10:10:05.071Z,2.02
2019-05-29T10:12:35.098Z,1.65
2019-05-29T10:15:07.193Z,1.80
2019-05-29T10:17:36.516Z,2.12
2019-05-29T10:20:10.425Z,2.60
2019-05-29T10:22:39.779Z,1.60
2019-05-29T10:25:14.732Z,1.77
2019-05-29T10:27:43.615Z,1.50
2019-05-29T10:30:13.403Z,1.47
2019-05-29T10:32:44.476Z,1.90
2019-05-29T10:35:13.277Z,2.70
2019-05-29T10:37:42.826Z,5.28
2019-05-29T10:40:16.228Z,4.65
2019-05-29T10:42:46.915Z,5.45
2019-05-29T10:45:20.932Z,6.22
2019-05-29T10:47:52.183Z,5.62
2019-05-29T10:50:20.333Z,5.10
2019-05-29T10:52:52.152Z,4.95
2019-05-29T10:55:23.231Z,4.90
2019-05-29T10:57:56.061Z,4.70
2019-05-29T11:00:37.998Z,4.00
2019-05-29T11:03:10.113Z,3.80
2019-05-29T11:05:47.377Z,3.40
2019-05-29T11:08:17.247Z,3.58
2019-05-29T11:10:47.848Z,3.55
2019-05-29T11:13:21.441Z,2.65
2019-05-29T11:15:53.330Z,2.62
2019-05-29T11:18:24.544Z,3.02
2019-05-29T11:20:57.535Z,1.77
2019-05-29T11:23:28.448Z,2.83
2019-05-29T11:25:59.981Z,2.98
2019-05-29T11:28:37.116Z,2.42
2019-05-29T11:31:07.916Z,2.25
2019-05-29T11:33:38.333Z,2.92
2019-05-29T11:36:12.590Z,2.70
2019-05-29T11:38:43.860Z,2.85
2019-05-29T11:44:03.236Z,3.75
2019-05-29T11:46:39.691Z,2.95
2019-05-29T11:49:11.364Z,3.12
2019-05-29T11:51:44.064Z,3.90
2019-05-29T11:54:10.619Z,3.00
2019-05-29T11:56:45.223Z,2.22
2019-05-29T12:00:19.497Z,2.72
2019-05-29T12:02:43.779Z,2.52
2019-05-29T12:05:14.467Z,2.47
2019-05-29T12:07:45.381Z,2.67
2019-05-29T12:10:14.661Z,2.58
2019-05-29T12:12:45.032Z,2.08
2019-05-29T12:15:17.074Z,3.62
2019-05-29T12:17:45.921Z,2.17
2019-05-29T12:20:27.996Z,2.12
2019-05-29T12:23:13.354Z,1.75
2019-05-29T12:25:22.150Z,2.10
2019-05-29T12:27:52.731Z,2.35
2019-05-29T12:30:23.070Z,2.25
2019-05-29T12:32:52.792Z,2.08
2019-05-29T12:35:22.920Z,1.95
2019-05-29T12:37:53.150Z,2.52
2019-05-29T12:40:27.652Z,1.98
2019-05-29T12:42:57.610Z,1.50
2019-05-29T12:45:30.972Z,2.65
2019-05-29T12:48:04.520Z,2.00
2019-05-29T12:50:34.395Z,2.08
2019-05-29T12:53:01.891Z,1.77
2019-05-29T12:55:31.234Z,1.72
2019-05-29T12:58:06.206Z,2.27
2019-05-29T13:00:38.179Z,1.75
2019-05-29T13:03:06.952Z,1.65
2019-05-29T13:05:36.713Z,2.20
2019-05-29T13:08:07.180Z,1.82
2019-05-29T13:13:41.202Z,2.05
2019-05-29T13:16:09.948Z,1.80
2019-05-29T13:18:46.574Z,2.12
2019-05-29T13:21:15.353Z,1.92
2019-05-29T13:23:46.892Z,2.00
2019-05-29T13:26:17.218Z,1.90
2019-05-29T13:28:45.925Z,2.17
2019-05-29T13:31:15.533Z,1.57
2019-05-29T13:33:44.316Z,1.85
2019-05-29T13:36:13.181Z,1.90
2019-05-29T13:38:41.977Z,1.70
2019-05-29T13:41:10.768Z,1.77
2019-05-29T13:43:50.773Z,1.80
2019-05-29T13:46:19.575Z,1.47
2019-05-29T13:48:49.686Z,1.75
2019-05-29T13:51:18.582Z,2.40
2019-05-29T13:54:03.598Z,2.00
2019-05-29T13:56:48.884Z,2.40
2019-05-29T13:59:19.053Z,1.30
2019-05-29T14:01:51.429Z,1.45
2019-05-29T14:04:20.329Z,1.62
2019-05-29T14:10:07.646Z,1.50
2019-05-29T14:16:42.335Z,1.55
2019-05-29T14:19:17.159Z,1.45
2019-05-29T14:22:14.602Z,1.30
2019-05-29T14:25:01.191Z,1.30
2019-05-29T14:27:16.759Z,1.00
2019-05-29T14:29:46.187Z,1.30
2019-05-29T14:32:16.268Z,1.00
2019-05-29T14:34:45.031Z,1.22
2019-05-29T14:37:19.133Z,1.27
2019-05-29T14:39:47.646Z,1.10
2019-05-29T14:42:16.906Z,0.98
2019-05-29T14:44:45.654Z,1.17
2019-05-29T14:47:14.469Z,1.05
2019-05-29T14:49:45.609Z,1.75
2019-05-29T14:52:15.148Z,1.10
2019-05-29T14:54:43.958Z,1.17
2019-05-29T14:57:25.532Z,0.85
2019-05-29T14:59:45.677Z,1.57
2019-05-29T15:02:23.559Z,1.10
2019-05-29T15:04:47.889Z,1.07
2019-05-29T15:07:22.808Z,1.50
2019-05-29T15:09:52.147Z,0.78
2019-05-29T15:12:21.029Z,0.90
2019-05-29T15:14:51.185Z,1.20
2019-05-29T15:17:20.991Z,1.02
2019-05-29T15:19:51.973Z,0.82
2019-05-29T15:22:22.096Z,1.12
2019-05-29T15:25:04.419Z,1.20
2019-05-29T15:27:21.590Z,1.05
2019-05-29T15:29:50.440Z,0.82
2019-05-29T15:32:20.531Z,0.93
2019-05-29T15:34:49.734Z,1.07
2019-05-29T15:37:20.057Z,1.22
2019-05-29T15:39:49.074Z,1.25
2019-05-29T15:42:17.849Z,1.10
2019-05-29T15:44:46.955Z,0.98
2019-05-29T15:47:17.215Z,0.90
2019-05-29T15:49:48.867Z,1.22
2019-05-29T15:52:19.213Z,1.42
2019-05-29T15:54:48.346Z,0.90
2019-05-29T15:57:19.149Z,1.10
2019-05-29T15:59:49.509Z,1.10
2019-05-29T16:02:29.852Z,1.02
2019-05-29T16:04:54.798Z,1.12
2019-05-29T16:07:26.183Z,1.57
2019-05-29T16:09:57.574Z,1.20
2019-05-29T16:12:30.410Z,1.02
2019-05-29T16:14:58.538Z,1.20
2019-05-29T16:17:29.865Z,0.78
2019-05-29T16:20:01.124Z,1.02
2019-05-29T16:22:30.694Z,0.88
2019-05-29T16:25:01.376Z,1.00
2019-05-29T16:27:31.728Z,1.20
2019-05-29T16:30:11.234Z,0.82
2019-05-29T16:32:45.291Z,1.35
2019-05-29T16:35:14.961Z,0.98
2019-05-29T16:37:45.418Z,1.05
2019-05-29T16:40:20.078Z,1.07
2019-05-29T16:42:59.480Z,1.00
2019-05-29T16:45:31.438Z,1.07
2019-05-29T16:48:04.332Z,0.90
2019-05-29T16:50:33.648Z,1.00
2019-05-29T16:53:16.762Z,0.88
2019-05-29T16:55:53.979Z,1.15
2019-05-29T16:58:21.753Z,2.08
2019-05-29T17:00:53.352Z,0.98
2019-05-29T17:03:25.571Z,0.80
2019-05-29T17:05:58.460Z,0.82
2019-05-29T17:08:28.318Z,1.05
2019-05-29T17:10:57.140Z,0.80
2019-05-29T17:16:24.796Z,1.10
2019-05-29T17:18:55.540Z,0.70
2019-05-29T17:21:25.117Z,1.10
2019-05-29T17:23:58.393Z,1.20
2019-05-29T17:29:22.916Z,0.80
2019-05-29T17:31:54.506Z,0.93
2019-05-29T17:34:25.258Z,0.60
2019-05-29T17:37:07.607Z,0.82
2019-05-29T17:39:37.980Z,0.95
2019-05-29T17:42:09.917Z,1.85
2019-05-29T17:44:39.363Z,1.00
2019-05-29T17:47:10.069Z,0.75
2019-05-29T17:49:53.471Z,0.85
2019-05-29T17:52:26.864Z,0.80
2019-05-29T17:54:56.047Z,0.68
2019-05-29T17:57:25.814Z,1.22
2019-05-29T17:59:54.920Z,0.60
2019-05-29T18:02:24.502Z,0.98
2019-05-29T18:04:53.481Z,0.70
2019-05-29T18:07:22.670Z,0.90
2019-05-29T18:09:51.578Z,0.88
2019-05-29T18:12:20.960Z,0.80
2019-05-29T18:14:50.121Z,1.10
2019-05-29T18:17:19.667Z,1.05
2019-05-29T18:19:48.799Z,1.07
2019-05-29T18:22:17.720Z,0.90
2019-05-29T18:24:46.490Z,0.70
2019-05-29T18:27:16.383Z,0.60
2019-05-29T18:29:45.162Z,0.80
2019-05-29T18:32:13.950Z,0.75
2019-05-29T18:34:42.989Z,0.75
2019-05-29T18:37:11.824Z,0.57
2019-05-29T18:39:40.628Z,0.60
2019-05-29T18:42:09.516Z,1.12
2019-05-29T18:44:38.317Z,0.60
2019-05-29T18:47:07.200Z,0.80
2019-05-29T18:49:36.174Z,0.70
2019-05-29T18:52:06.200Z,0.80
2019-05-29T18:54:34.953Z,0.93
2019-05-29T18:57:15.183Z,0.93
2019-05-29T18:59:34.208Z,1.10
2019-05-29T19:02:03.087Z,0.90
2019-05-29T19:04:32.144Z,0.80
2019-05-29T19:07:02.660Z,0.45
2019-05-29T19:09:31.995Z,0.60
2019-05-29T19:12:01.307Z,0.80
2019-05-29T19:14:30.246Z,0.70
2019-05-29T19:16:59.979Z,0.60
2019-05-29T19:19:30.192Z,0.70
2019-05-29T19:22:00.637Z,0.50
2019-05-29T19:24:35.274Z,0.70
2019-05-29T19:27:05.734Z,0.90
2019-05-29T19:29:34.601Z,1.05
